Time;durP1;ratioP1;P1;durP2;ratioP2;P2;SDS_P1;SDS_P2;PMS_P1;PMS_P2;Temp;Humidity;BMP_temperature;BMP_pressure;BME280_temperature;BME280_humidity;BME280_pressure;Samples;Min_cycle;Max_cycle;Signal;HPM_P1;HPM_P2
2024/02/06 00:02:20;;;;;;;5.40;4.53;;;;;;;7.22;69.01;97007.41;4982646;28;20099;-78
2024/02/06 00:04:48;;;;;;;6.40;5.40;;;;;;;7.22;69.08;96999.63;4974639;28;20046;-78
2024/02/06 00:07:16;;;;;;;9.02;5.68;;;;;;;7.18;68.86;97003.50;4974849;28;20178;-78
2024/02/06 00:09:55;;;;;;;8.63;6.05;;;;;;;7.11;68.27;97005.06;4974779;28;20126;-78
2024/02/06 00:12:24;;;;;;;7.07;5.82;;;;;;;7.08;69.63;96997.56;4974466;28;20061;-78
2024/02/06 00:14:53;;;;;;;9.15;6.72;;;;;;;7.05;68.85;97003.88;4974535;28;20077;-78
2024/02/06 00:17:21;;;;;;;9.82;6.22;;;;;;;7.00;69.87;96995.72;4974293;28;20047;-78
2024/02/06 00:19:48;;;;;;;10.50;6.35;;;;;;;6.98;68.94;97000.25;4974634;28;20042;-78
2024/02/06 00:22:16;;;;;;;9.90;7.32;;;;;;;6.89;68.79;96995.97;4974781;28;20079;-77
2024/02/06 00:24:44;;;;;;;8.05;6.50;;;;;;;6.84;70.09;96996.38;4974490;28;20082;-78
2024/02/06 00:27:11;;;;;;;8.38;6.00;;;;;;;6.85;71.56;97003.22;4974472;28;20452;-78
2024/02/06 00:29:39;;;;;;;8.95;6.47;;;;;;;6.89;71.69;96994.19;4974356;28;20196;-78
2024/02/06 00:32:08;;;;;;;11.27;7.40;;;;;;;6.88;71.17;97005.50;4973911;28;20047;-78
2024/02/06 00:34:35;;;;;;;11.32;8.15;;;;;;;6.89;70.98;96999.38;4974221;28;20051;-77
2024/02/06 00:37:03;;;;;;;12.40;7.10;;;;;;;6.91;71.29;97000.03;4973706;28;20579;-78
2024/02/06 00:39:31;;;;;;;11.13;8.25;;;;;;;6.89;70.30;96989.00;4974334;28;20501;-79
2024/02/06 00:41:59;;;;;;;11.25;7.85;;;;;;;6.85;71.62;96997.22;4974158;28;20050;-78
2024/02/06 00:44:26;;;;;;;12.10;8.65;;;;;;;6.88;71.28;97002.09;4973609;28;20074;-78
2024/02/06 00:46:54;;;;;;;11.00;8.65;;;;;;;6.90;71.28;97000.19;4974262;28;20050;-78
2024/02/06 00:49:23;;;;;;;12.45;9.48;;;;;;;6.87;71.29;97001.28;4974308;28;20129;-78
2024/02/06 00:51:51;;;;;;;12.25;9.18;;;;;;;6.85;71.13;97005.81;4973922;28;20505;-78
2024/02/06 00:54:19;;;;;;;15.88;8.60;;;;;;;6.90;71.83;97007.94;4973854;28;20051;-78
2024/02/06 00:56:46;;;;;;;10.75;8.40;;;;;;;6.96;71.87;97015.94;4973841;28;20090;-78
2024/02/06 00:59:14;;;;;;;13.68;9.07;;;;;;;7.04;71.74;97001.41;4974034;28;20182;-78
2024/02/06 01:01:41;;;;;;;12.63;8.60;;;;;;;7.10;71.84;97006.00;4973667;28;20572;-78
2024/02/06 01:04:09;;;;;;;16.55;9.80;;;;;;;7.09;70.61;97007.00;4973582;28;20409;-78
2024/02/06 01:06:38;;;;;;;14.00;8.98;;;;;;;7.01;71.26;97002.53;4973935;28;20163;-78
2024/02/06 01:09:06;;;;;;;14.02;8.98;;;;;;;7.00;71.59;96999.13;4974424;28;20058;-78
2024/02/06 01:11:33;;;;;;;11.98;8.90;;;;;;;6.96;70.95;97000.38;4973312;28;20460;-78
2024/02/06 01:14:01;;;;;;;13.50;9.05;;;;;;;6.90;71.28;96998.38;4973379;28;20532;-78
2024/02/06 01:16:28;;;;;;;12.05;9.05;;;;;;;6.93;71.74;97003.28;4973441;28;20129;-78
2024/02/06 01:18:56;;;;;;;14.13;8.57;;;;;;;6.94;71.28;96991.13;4973745;28;20459;-78
2024/02/06 01:21:23;;;;;;;15.02;9.32;;;;;;;6.92;70.70;96999.06;4973682;28;20058;-78
2024/02/06 01:23:52;;;;;;;14.20;8.68;;;;;;;6.92;71.36;96991.28;4973620;28;20057;-78
2024/02/06 01:26:20;;;;;;;14.25;8.90;;;;;;;6.93;70.75;96997.28;4973532;28;20166;-78
2024/02/06 01:28:48;;;;;;;15.18;9.07;;;;;;;6.87;70.68;97000.47;4973893;28;20105;-78
2024/02/06 01:31:16;;;;;;;13.45;9.00;;;;;;;6.89;71.07;97001.97;4973401;28;20067;-78
2024/02/06 01:33:44;;;;;;;13.73;8.80;;;;;;;6.90;70.78;96993.19;4972974;28;20086;-78
2024/02/06 01:36:11;;;;;;;10.45;8.50;;;;;;;6.88;70.89;96994.31;4973592;28;20469;-78
2024/02/06 01:38:39;;;;;;;13.50;9.40;;;;;;;6.82;71.63;96990.53;4973744;28;20451;-78
2024/02/06 01:41:08;;;;;;;11.90;7.82;;;;;;;6.79;71.92;96993.44;4973570;28;20053;-78
2024/02/06 01:43:35;;;;;;;13.38;8.82;;;;;;;6.79;72.00;96993.44;4973235;28;20079;-78
2024/02/06 01:46:05;;;;;;;11.70;8.98;;;;;;;6.84;73.05;96990.38;4973648;28;20105;-78
2024/02/06 01:48:33;;;;;;;11.13;7.70;;;;;;;6.91;72.54;96991.41;4975014;28;20069;-78
2024/02/06 01:51:02;;;;;;;12.57;8.40;;;;;;;6.96;73.21;96995.19;4977307;28;20051;-78
2024/02/06 01:53:30;;;;;;;16.33;9.35;;;;;;;6.97;72.57;96991.63;4977176;28;20051;-78
2024/02/06 01:55:58;;;;;;;12.18;8.50;;;;;;;6.99;72.72;96988.91;4977489;28;20097;-78
2024/02/06 01:58:28;;;;;;;13.15;9.25;;;;;;;7.04;72.55;96986.69;4977906;28;20504;-78
2024/02/06 02:00:56;;;;;;;14.52;9.00;;;;;;;7.08;72.63;96982.81;4991401;28;20038;-78
2024/02/06 02:03:26;;;;;;;16.92;8.50;;;;;;;7.10;72.34;96982.66;4990440;28;20508;-78
2024/02/06 02:05:54;;;;;;;11.40;7.45;;;;;;;7.11;71.88;96986.91;4991586;28;20118;-78
2024/02/06 02:08:23;;;;;;;10.82;8.23;;;;;;;7.11;72.61;96992.91;4985412;28;20042;-78
2024/02/06 02:10:51;;;;;;;14.48;8.15;;;;;;;7.09;71.57;96994.03;4980236;28;20051;-78
2024/02/06 02:13:19;;;;;;;13.27;7.85;;;;;;;7.08;72.25;96992.38;5028164;23;20045;-76
2024/02/06 02:15:48;;;;;;;12.68;8.70;;;;;;;7.04;71.83;96985.84;5016198;28;20431;-76
2024/02/06 02:18:15;;;;;;;12.73;7.85;;;;;;;7.06;71.93;96978.75;5016294;28;20141;-77
2024/02/06 02:20:43;;;;;;;12.88;8.88;;;;;;;7.04;72.56;96981.50;5016886;28;20060;-76
2024/02/06 02:23:13;;;;;;;12.85;7.53;;;;;;;7.07;72.41;96977.78;5016505;28;20486;-76
2024/02/06 02:25:52;;;;;;;12.27;8.88;;;;;;;7.05;71.13;96977.13;5016927;28;20061;-76
2024/02/06 02:28:20;;;;;;;11.80;7.55;;;;;;;7.00;71.56;96970.59;5016214;28;20088;-77
2024/02/06 02:30:48;;;;;;;12.77;7.45;;;;;;;7.00;72.14;96970.59;5015776;28;20426;-76
2024/02/06 02:33:16;;;;;;;10.23;7.30;;;;;;;7.01;71.41;96977.41;5015721;28;20134;-77
2024/02/06 02:35:45;;;;;;;10.57;7.50;;;;;;;7.00;71.45;96975.78;5001880;28;20050;-76
2024/02/06 02:38:14;;;;;;;15.93;7.47;;;;;;;7.03;71.95;96966.09;4994191;28;20082;-77
2024/02/06 02:40:42;;;;;;;15.88;7.88;;;;;;;7.04;71.08;96975.47;4996847;28;20478;-77
2024/02/06 02:43:09;;;;;;;10.85;7.30;;;;;;;7.03;71.38;96973.88;4999734;28;20077;-76
2024/02/06 02:45:36;;;;;;;12.23;7.68;;;;;;;6.98;70.45;96972.53;4996062;28;20058;-76
2024/02/06 02:48:04;;;;;;;12.05;6.60;;;;;;;6.96;70.58;96966.69;4996584;28;20060;-76
2024/02/06 02:50:32;;;;;;;14.57;7.47;;;;;;;6.92;70.11;96970.53;4995945;28;20054;-77
2024/02/06 02:52:59;;;;;;;13.70;8.57;;;;;;;6.87;70.54;96970.16;4995984;28;20090;-78
2024/02/06 02:55:28;;;;;;;14.10;6.43;;;;;;;6.88;71.04;96969.19;4995789;28;20073;-77
2024/02/06 02:57:56;;;;;;;10.35;7.15;;;;;;;6.88;71.42;96966.59;4996278;28;20112;-78
2024/02/06 03:00:24;;;;;;;9.38;7.20;;;;;;;6.93;71.66;96963.56;4995656;28;20059;-77
2024/02/06 03:02:51;;;;;;;10.07;6.63;;;;;;;6.93;70.83;96963.56;4995865;28;20567;-77
2024/02/06 03:05:19;;;;;;;7.43;6.28;;;;;;;6.93;71.71;96966.97;4995615;28;20176;-79
2024/02/06 03:07:46;;;;;;;9.57;5.95;;;;;;;6.97;72.01;96964.88;4996472;28;20050;-77
2024/02/06 03:10:14;;;;;;;11.55;6.20;;;;;;;7.01;71.47;96967.03;4996082;28;20129;-77
2024/02/06 03:12:43;;;;;;;13.40;7.53;;;;;;;7.01;71.24;96964.44;4995565;28;20057;-77
2024/02/06 03:15:11;;;;;;;13.48;6.78;;;;;;;6.97;70.34;96960.50;4993921;28;20054;-77
2024/02/06 03:17:39;;;;;;;13.25;6.88;;;;;;;6.89;69.86;96960.47;4993423;28;20050;-77
2024/02/06 03:20:09;;;;;;;11.57;6.72;;;;;;;6.84;69.91;96959.28;4992223;28;20512;-77
2024/02/06 03:22:37;;;;;;;9.80;5.43;;;;;;;6.84;70.07;96965.25;4993472;28;20109;-78
2024/02/06 03:25:05;;;;;;;9.00;6.57;;;;;;;6.82;70.25;96967.19;4997676;28;20046;-78
2024/02/06 03:27:33;;;;;;;17.77;7.55;;;;;;;6.80;70.14;96958.78;5016101;28;20101;-77
2024/02/06 03:30:04;;;;;;;11.82;6.75;;;;;;;6.81;70.19;96961.19;5017298;28;20031;-77
2024/02/06 03:32:31;;;;;;;13.05;6.05;;;;;;;6.82;70.05;96951.63;5000709;28;20137;-77
2024/02/06 03:35:00;;;;;;;9.93;6.10;;;;;;;6.80;70.05;96959.59;4996157;28;20571;-78
2024/02/06 03:37:27;;;;;;;10.35;6.55;;;;;;;6.80;69.86;96963.97;4996345;28;20053;-77
2024/02/06 03:39:55;;;;;;;16.05;6.55;;;;;;;6.78;69.92;96961.50;4995666;28;20065;-78
2024/02/06 03:42:23;;;;;;;10.20;6.13;;;;;;;6.78;70.09;96955.50;4995471;28;20049;-77
2024/02/06 03:44:50;;;;;;;14.13;6.43;;;;;;;6.77;70.11;96959.06;4994539;28;20057;-77
2024/02/06 03:47:19;;;;;;;12.63;6.35;;;;;;;6.76;69.90;96967.81;4995437;28;20050;-77
2024/02/06 03:49:47;;;;;;;10.20;6.28;;;;;;;6.76;70.31;96967.81;4993146;28;20282;-77
2024/02/06 03:52:14;;;;;;;12.70;6.38;;;;;;;6.76;70.24;96962.63;5009953;28;20050;-77
2024/02/06 03:54:42;;;;;;;10.55;7.10;;;;;;;6.76;70.12;96968.63;5011870;28;20050;-77
2024/02/06 03:57:10;;;;;;;11.32;6.10;;;;;;;6.75;70.82;96966.97;5013080;28;20074;-77
2024/02/06 03:59:39;;;;;;;11.52;6.43;;;;;;;6.77;70.03;96966.84;5008411;28;20464;-77
2024/02/06 04:02:07;;;;;;;11.88;6.18;;;;;;;6.76;69.56;96973.00;4995225;28;20042;-77
2024/02/06 04:04:36;;;;;;;13.15;7.30;;;;;;;6.73;70.33;96979.25;4995668;28;20057;-77
2024/02/06 04:07:04;;;;;;;11.55;6.35;;;;;;;6.72;70.13;96967.28;4995716;28;20112;-78
2024/02/06 04:09:32;;;;;;;14.60;7.07;;;;;;;6.70;69.88;96964.03;5004501;28;20050;-77
2024/02/06 04:11:59;;;;;;;11.73;6.65;;;;;;;6.70;70.31;96978.75;5003791;28;20046;-78
2024/02/06 04:14:27;;;;;;;12.88;7.05;;;;;;;6.70;70.36;96976.97;5008321;28;20053;-78
2024/02/06 04:16:55;;;;;;;12.45;6.10;;;;;;;6.70;70.47;96978.75;4996124;28;20076;-78
2024/02/06 04:19:23;;;;;;;15.43;6.78;;;;;;;6.71;69.92;96977.78;4995837;28;20142;-77
2024/02/06 04:21:52;;;;;;;11.00;6.60;;;;;;;6.69;69.94;96982.31;4995428;28;20050;-78
2024/02/06 04:24:20;;;;;;;10.88;6.13;;;;;;;6.68;70.10;96978.91;4995044;28;20067;-78
2024/02/06 04:26:47;;;;;;;11.20;6.43;;;;;;;6.65;70.00;96975.78;4994799;28;20555;-77
2024/02/06 04:29:15;;;;;;;14.80;6.60;;;;;;;6.67;70.68;96977.28;4994900;28;20078;-78
2024/02/06 04:31:42;;;;;;;15.20;6.75;;;;;;;6.70;69.92;96976.16;4994762;28;20423;-77
2024/02/06 04:34:10;;;;;;;11.57;7.10;;;;;;;6.69;69.58;96977.13;4994124;28;20050;-77
2024/02/06 04:36:39;;;;;;;12.80;7.13;;;;;;;6.66;69.45;96972.25;4994954;28;20054;-77
2024/02/06 04:39:07;;;;;;;16.75;7.50;;;;;;;6.66;69.90;96977.44;4994457;28;20108;-78
2024/02/06 04:41:36;;;;;;;12.73;8.05;;;;;;;6.67;69.49;96977.28;4994435;28;20146;-77
2024/02/06 04:44:04;;;;;;;13.95;6.88;;;;;;;6.63;69.28;96968.19;4994319;28;20054;-77
2024/02/06 04:46:31;;;;;;;11.60;7.22;;;;;;;6.55;69.09;96957.72;4994963;28;20435;-78
2024/02/06 04:48:59;;;;;;;13.35;7.07;;;;;;;6.50;69.67;96963.34;4995118;28;20136;-77
2024/02/06 04:51:29;;;;;;;15.63;7.10;;;;;;;6.53;70.28;96955.28;4994745;28;20053;-77
2024/02/06 04:53:56;;;;;;;14.05;6.93;;;;;;;6.54;69.36;96959.50;4993815;28;20050;-77
2024/02/06 04:56:25;;;;;;;13.15;7.10;;;;;;;6.53;69.79;96957.88;4994339;28;20137;-77
2024/02/06 04:58:53;;;;;;;17.58;7.18;;;;;;;6.52;69.46;96951.06;4994214;28;20151;-77
2024/02/06 05:01:21;;;;;;;14.18;7.13;;;;;;;6.55;69.75;96955.94;4993904;28;20512;-77
2024/02/06 05:03:48;;;;;;;16.27;7.78;;;;;;;6.52;69.57;96951.06;4993925;28;20046;-77
2024/02/06 05:06:16;;;;;;;8.85;6.57;;;;;;;6.52;70.21;96945.88;5006573;28;20061;-77
2024/02/06 05:08:44;;;;;;;13.95;7.70;;;;;;;6.53;69.57;96947.50;5016003;28;20056;-77
2024/02/06 05:11:12;;;;;;;15.20;7.10;;;;;;;6.52;70.53;96948.47;5016070;28;20057;-77
2024/02/06 05:13:42;;;;;;;10.90;6.25;;;;;;;6.53;70.65;96951.88;5005457;28;20078;-78
2024/02/06 05:16:11;;;;;;;10.63;6.50;;;;;;;6.55;70.49;96947.34;4998328;28;20054;-77
2024/02/06 05:18:38;;;;;;;12.63;6.82;;;;;;;6.57;70.57;96946.25;4996743;28;20108;-77
2024/02/06 05:21:06;;;;;;;11.45;6.88;;;;;;;6.59;69.83;96946.91;4994412;28;20520;-77
2024/02/06 05:23:34;;;;;;;9.70;6.57;;;;;;;6.59;69.77;96948.69;4993441;28;20074;-77
2024/02/06 05:26:01;;;;;;;20.27;8.32;;;;;;;6.53;69.36;96957.88;4991782;28;20141;-76
2024/02/06 05:28:29;;;;;;;14.02;7.60;;;;;;;6.48;69.11;96957.50;4994330;28;20050;-76
2024/02/06 05:30:58;;;;;;;10.45;6.40;;;;;;;6.46;69.02;96956.81;5001503;28;20054;-77
2024/02/06 05:33:25;;;;;;;14.02;6.55;;;;;;;6.46;69.57;96956.81;5005257;28;20092;-76
2024/02/06 05:35:53;;;;;;;11.82;7.75;;;;;;;6.43;69.22;96959.72;4997553;28;20108;-77
2024/02/06 05:38:21;;;;;;;11.05;7.00;;;;;;;6.39;69.27;96950.63;5013018;28;20566;-76
2024/02/06 05:40:48;;;;;;;11.73;6.63;;;;;;;6.37;69.49;96953.34;5008212;28;20101;-76
2024/02/06 05:43:16;;;;;;;14.85;7.00;;;;;;;6.39;69.63;96961.78;5003923;28;20039;-77
2024/02/06 05:45:43;;;;;;;17.55;7.72;;;;;;;6.41;69.38;96948.69;4998603;28;20046;-76
2024/02/06 05:48:12;;;;;;;13.88;6.88;;;;;;;6.41;69.57;96956.47;5011730;28;20046;-76
2024/02/06 05:50:40;;;;;;;11.52;6.47;;;;;;;6.40;69.48;96939.28;4993742;28;20055;-77
2024/02/06 05:53:08;;;;;;;70.28;36.20;;;;;;;6.39;69.67;96935.06;4993178;28;20503;-76
2024/02/06 05:55:35;;;;;;;18.65;8.75;;;;;;;6.41;69.77;96933.16;4993263;28;20485;-77
2024/02/06 05:58:04;;;;;;;16.05;7.10;;;;;;;6.38;69.44;96936.00;4993536;28;20116;-76
2024/02/06 06:00:33;;;;;;;12.57;6.07;;;;;;;6.36;69.21;96932.75;4992475;28;20050;-78
2024/02/06 06:03:01;;;;;;;12.23;7.10;;;;;;;6.34;69.21;96934.66;4992560;28;20508;-77
2024/02/06 06:05:30;;;;;;;11.98;6.18;;;;;;;6.33;69.97;96930.47;4995171;28;20118;-78
2024/02/06 06:07:58;;;;;;;15.88;7.68;;;;;;;6.35;69.65;96934.53;4993545;28;20046;-77
2024/02/06 06:10:25;;;;;;;14.43;6.30;;;;;;;6.35;69.40;96933.72;4997981;28;20104;-79
2024/02/06 06:12:53;;;;;;;12.27;6.68;;;;;;;6.36;70.16;96925.81;5000344;28;20085;-78
2024/02/06 06:15:20;;;;;;;9.90;6.10;;;;;;;6.40;69.93;96932.31;4992660;28;20057;-78
2024/02/06 06:17:48;;;;;;;8.88;6.50;;;;;;;6.44;70.10;96929.44;4993325;28;20411;-78
2024/02/06 06:20:17;;;;;;;11.90;7.22;;;;;;;6.43;69.68;96930.38;4993217;28;20050;-78
2024/02/06 06:22:46;;;;;;;10.95;6.30;;;;;;;6.37;70.55;96932.63;4992947;28;20471;-78
2024/02/06 06:25:14;;;;;;;15.73;6.55;;;;;;;6.37;69.93;96936.97;4992930;28;20428;-78
2024/02/06 06:27:42;;;;;;;14.68;6.45;;;;;;;6.39;70.53;96935.06;4995373;28;20052;-78
2024/02/06 06:30:11;;;;;;;14.77;6.35;;;;;;;6.39;69.79;96929.88;5015829;28;20054;-78
2024/02/06 06:32:40;;;;;;;9.00;6.15;;;;;;;6.36;70.48;96937.94;5015527;28;20082;-78
2024/02/06 06:35:09;;;;;;;14.30;6.07;;;;;;;6.31;69.64;96940.97;5017417;28;20073;-78
2024/02/06 06:37:36;;;;;;;11.25;6.60;;;;;;;6.31;69.90;96940.16;5003206;28;20496;-78
2024/02/06 06:40:08;;;;;;;11.27;6.82;;;;;;;6.23;69.98;96940.06;4998276;28;20054;-78
2024/02/06 06:42:36;;;;;;;14.07;7.13;;;;;;;6.19;70.46;96945.56;4996853;28;20097;-78
2024/02/06 06:45:04;;;;;;;11.27;6.82;;;;;;;6.21;70.64;96939.41;4996929;28;20423;-79
2024/02/06 06:47:32;;;;;;;9.45;6.68;;;;;;;6.18;70.02;96933.53;4997186;28;20050;-78
2024/02/06 06:50:00;;;;;;;15.77;6.97;;;;;;;6.12;70.02;96939.31;4997075;28;20050;-78
2024/02/06 06:52:29;;;;;;;10.73;6.75;;;;;;;6.12;69.92;96928.97;4996857;28;20054;-78
2024/02/06 06:54:57;;;;;;;12.07;6.65;;;;;;;6.15;70.37;96927.84;4996373;28;20054;-78
2024/02/06 06:57:26;;;;;;;11.80;5.97;;;;;;;6.18;70.46;96928.38;4996508;28;20057;-78
2024/02/06 06:59:53;;;;;;;11.45;6.35;;;;;;;6.21;70.20;96931.63;4996472;28;20061;-78
2024/02/06 07:02:21;;;;;;;12.07;5.88;;;;;;;6.21;69.48;96916.09;4996396;28;20133;-79
2024/02/06 07:04:49;;;;;;;12.13;7.30;;;;;;;6.16;69.71;96925.09;4996569;28;20141;-78
2024/02/06 07:07:17;;;;;;;7.57;5.40;;;;;;;6.17;70.75;96928.53;4996486;28;20064;-79
2024/02/06 07:09:45;;;;;;;10.38;5.93;;;;;;;6.18;69.78;96925.78;4995812;28;20054;-78
2024/02/06 07:12:13;;;;;;;10.80;6.88;;;;;;;6.19;70.20;96919.66;4995706;28;20142;-78
2024/02/06 07:14:42;;;;;;;11.98;6.85;;;;;;;6.23;70.84;96919.34;4995953;28;20137;-78
2024/02/06 07:17:10;;;;;;;11.73;5.68;;;;;;;6.25;70.57;96920.81;4995988;28;20050;-79
2024/02/06 07:19:38;;;;;;;10.23;5.88;;;;;;;6.30;69.95;96923.00;4996045;28;20057;-78
2024/02/06 07:22:05;;;;;;;9.23;6.32;;;;;;;6.31;69.76;96914.25;4995657;28;20108;-78
2024/02/06 07:24:33;;;;;;;13.35;7.07;;;;;;;6.31;69.19;96916.84;4995433;28;20046;-78
2024/02/06 07:27:01;;;;;;;11.05;7.32;;;;;;;6.29;69.79;96911.78;4995633;28;20105;-78
2024/02/06 07:29:29;;;;;;;9.20;6.38;;;;;;;6.33;70.26;96922.69;4996056;28;20081;-79
2024/02/06 07:31:58;;;;;;;10.95;6.32;;;;;;;6.37;69.36;96929.22;4995182;28;20109;-78
2024/02/06 07:34:25;;;;;;;9.20;6.60;;;;;;;6.42;70.02;96934.75;4995075;28;20054;-78
2024/02/06 07:36:53;;;;;;;10.60;6.78;;;;;;;6.44;70.01;96932.84;4995258;28;20053;-78
2024/02/06 07:39:21;;;;;;;11.77;6.80;;;;;;;6.45;70.15;96937.06;4995658;28;20058;-78
2024/02/06 07:41:49;;;;;;;9.60;6.05;;;;;;;6.44;69.19;96943.19;4995196;28;20092;-78
2024/02/06 07:44:16;;;;;;;10.40;7.05;;;;;;;6.36;69.21;96943.94;4994892;28;20420;-78
2024/02/06 07:46:44;;;;;;;7.93;6.10;;;;;;;6.35;69.87;96944.91;4995227;28;20619;-78
2024/02/06 07:49:13;;;;;;;11.45;6.15;;;;;;;6.41;70.40;96943.50;4994900;28;20077;-78
2024/02/06 07:51:41;;;;;;;8.63;6.40;;;;;;;6.46;69.50;96937.88;4994840;28;20110;-79
2024/02/06 07:54:09;;;;;;;10.38;6.05;;;;;;;6.49;69.40;96940.97;4994955;28;20054;-78
2024/02/06 07:56:38;;;;;;;10.40;6.85;;;;;;;6.51;68.89;96953.78;4995881;28;20054;-78
2024/02/06 07:59:06;;;;;;;8.90;5.97;;;;;;;6.51;69.54;96944.22;4995401;28;20086;-78
2024/02/06 08:01:34;;;;;;;13.63;7.18;;;;;;;6.55;69.55;96949.94;4994803;28;20108;-79
2024/02/06 08:04:02;;;;;;;8.50;6.13;;;;;;;6.54;68.85;96949.13;4994260;28;20054;-78
2024/02/06 08:06:34;;;;;;;11.57;5.88;;;;;;;6.52;68.91;96958.84;4994530;28;20124;-78
2024/02/06 08:09:03;;;;;;;10.02;6.78;;;;;;;6.51;68.91;96958.97;4994874;28;20058;-78
2024/02/06 08:11:31;;;;;;;15.52;6.53;;;;;;;6.51;68.98;96957.19;4994690;28;20074;-78
2024/02/06 08:14:00;;;;;;;11.00;5.68;;;;;;;6.54;69.14;96967.28;5065004;23;20124;-81
2024/02/06 08:16:38;;;;;;;10.75;5.53;;;;;;;6.58;68.93;96960.00;5029978;28;20054;-81
2024/02/06 08:19:06;;;;;;;8.95;5.20;;;;;;;6.59;68.14;96957.28;5026688;28;20085;-82
2024/02/06 08:21:35;;;;;;;9.85;6.13;;;;;;;6.55;67.86;96961.13;5019621;28;20052;-82
2024/02/06 08:24:04;;;;;;;12.82;5.55;;;;;;;6.52;67.97;96971.00;5019551;28;20050;-83
2024/02/06 08:26:31;;;;;;;6.15;4.97;;;;;;;6.51;67.86;96964.97;5021840;28;20128;-81
2024/02/06 08:28:59;;;;;;;8.60;5.10;;;;;;;6.50;68.61;96978.91;5019522;28;20111;-80
2024/02/06 08:31:26;;;;;;;9.27;5.70;;;;;;;6.49;67.79;96961.69;5019603;28;20120;-81
2024/02/06 08:33:54;;;;;;;13.50;6.00;;;;;;;6.47;67.73;96958.47;5018728;28;20053;-81
2024/02/06 08:36:22;;;;;;;9.32;5.53;;;;;;;6.47;67.90;96968.84;5019070;28;20140;-83
2024/02/06 08:38:51;;;;;;;8.23;5.75;;;;;;;6.48;67.46;96960.09;5019678;28;20077;-79
2024/02/06 08:41:18;;;;;;;8.60;4.53;;;;;;;6.49;66.87;96955.72;5019141;28;20110;-81
2024/02/06 08:43:46;;;;;;;9.85;5.50;;;;;;;6.45;67.25;96956.97;5018421;28;20138;-81
2024/02/06 08:46:22;;;;;;;10.57;5.03;;;;;;;6.45;67.83;96965.56;5019776;28;20100;-81
2024/02/06 08:48:50;;;;;;;8.15;4.90;;;;;;;6.47;66.99;96965.41;5018973;28;20045;-80
2024/02/06 08:51:18;;;;;;;7.60;4.72;;;;;;;6.47;66.72;96966.25;5018183;28;20050;-78
2024/02/06 08:53:45;;;;;;;9.05;4.93;;;;;;;6.50;67.14;96965.13;5018158;28;20117;-79
2024/02/06 08:56:15;;;;;;;6.78;4.38;;;;;;;6.54;68.53;96975.06;5017937;28;20555;-79
2024/02/06 08:58:43;;;;;;;7.20;4.65;;;;;;;6.60;68.20;96971.88;5017890;28;20053;-81
2024/02/06 09:01:11;;;;;;;5.85;4.55;;;;;;;6.67;67.81;96968.69;5017323;28;20050;-82
2024/02/06 09:03:40;;;;;;;8.13;4.65;;;;;;;6.68;67.12;96975.50;5017943;28;20045;-78
2024/02/06 09:06:07;;;;;;;10.20;5.90;;;;;;;6.66;66.75;96983.41;5018159;28;20141;-79
2024/02/06 09:08:35;;;;;;;9.35;5.80;;;;;;;6.63;67.21;96981.13;5018828;28;20053;-79
2024/02/06 09:11:04;;;;;;;10.30;5.25;;;;;;;6.65;66.70;96962.81;5017535;28;20100;-78
2024/02/06 09:13:33;;;;;;;16.52;5.53;;;;;;;6.68;66.81;96965.94;5017027;28;20404;-82
2024/02/06 09:16:01;;;;;;;10.85;3.95;;;;;;;6.72;67.27;96958.69;5017207;28;20046;-77
2024/02/06 09:18:30;;;;;;;8.15;4.18;;;;;;;6.79;66.68;96957.13;5016438;28;20046;-80
2024/02/06 09:20:57;;;;;;;9.18;4.60;;;;;;;6.85;66.52;96947.94;5016739;28;20092;-79
2024/02/06 09:23:25;;;;;;;9.32;4.40;;;;;;;6.88;66.38;96947.63;5016139;28;20566;-78
2024/02/06 09:25:53;;;;;;;12.05;4.03;;;;;;;6.93;67.02;96943.66;5016490;28;20463;-77
2024/02/06 09:28:20;;;;;;;7.32;3.40;;;;;;;6.97;66.74;96929.38;5016820;28;20426;-78
2024/02/06 09:30:49;;;;;;;7.82;4.28;;;;;;;7.01;66.30;96933.31;5016443;28;20185;-79
2024/02/06 09:33:17;;;;;;;11.25;3.88;;;;;;;7.03;65.67;96933.16;5016280;28;20084;-77
2024/02/06 09:35:45;;;;;;;6.43;3.33;;;;;;;7.04;66.30;96933.97;5016665;28;20129;-78
2024/02/06 09:38:13;;;;;;;8.43;3.70;;;;;;;7.07;66.12;96933.69;5016314;28;20050;-82
2024/02/06 09:40:41;;;;;;;4.55;3.45;;;;;;;7.09;65.89;96932.56;5016028;28;20582;-80
2024/02/06 09:43:11;;;;;;;5.10;3.22;;;;;;;7.13;65.86;96928.72;5016573;28;20392;-79
2024/02/06 09:45:39;;;;;;;4.95;3.45;;;;;;;7.19;65.90;96922.91;5015726;28;20057;-80
2024/02/06 09:48:08;;;;;;;4.95;2.55;;;;;;;7.22;65.97;96919.19;5016178;28;20494;-81
2024/02/06 09:50:36;;;;;;;6.20;2.35;;;;;;;7.26;66.29;96920.53;5015743;28;20073;-80
2024/02/06 09:53:09;;;;;;;5.53;2.75;;;;;;;7.30;65.48;96914.03;5015576;28;20503;-78
2024/02/06 09:55:38;;;;;;;3.75;2.20;;;;;;;7.32;65.45;96917.28;5015838;28;20101;-78
2024/02/06 09:58:07;;;;;;;7.40;2.70;;;;;;;7.34;65.38;96909.38;5015699;28;20081;-79
2024/02/06 10:00:37;;;;;;;7.43;3.05;;;;;;;7.37;65.49;96909.06;5017209;28;20058;-80
2024/02/06 10:03:13;;;;;;;5.22;2.53;;;;;;;7.41;64.82;96906.03;5018906;28;20085;-80
2024/02/06 10:05:42;;;;;;;7.00;2.33;;;;;;;7.47;65.30;96904.56;5018611;28;20100;-81
2024/02/06 10:08:13;;;;;;;8.57;2.80;;;;;;;7.48;65.06;96901.03;5019453;28;20046;-79
2024/02/06 10:10:42;;;;;;;4.38;2.28;;;;;;;7.52;64.87;96901.50;5022139;28;20057;-80
2024/02/06 10:13:11;;;;;;;3.92;2.45;;;;;;;7.55;64.74;96911.59;5021822;28;20050;-80
2024/02/06 10:15:39;;;;;;;9.20;2.97;;;;;;;7.59;65.15;96910.31;5020913;28;20490;-81
2024/02/06 10:18:07;;;;;;;7.95;2.60;;;;;;;7.64;65.04;96900.28;5022693;28;20487;-78
2024/02/06 10:20:43;;;;;;;4.18;2.42;;;;;;;7.69;65.20;96908.41;5021423;28;20050;-78
2024/02/06 10:23:12;;;;;;;4.10;2.90;;;;;;;7.74;64.86;96920.91;5021221;28;20060;-78
2024/02/06 10:25:39;;;;;;;8.07;2.20;;;;;;;7.78;65.16;96906.66;5020979;28;20109;-81
2024/02/06 10:28:07;;;;;;;3.53;1.90;;;;;;;7.82;64.65;96919.16;5021762;28;20054;-78
2024/02/06 10:30:35;;;;;;;4.40;2.00;;;;;;;7.86;64.58;96919.69;5020833;28;20050;-80
2024/02/06 10:33:13;;;;;;;5.18;2.00;;;;;;;7.90;64.31;96923.59;5021744;28;20058;-77
2024/02/06 10:35:43;;;;;;;5.45;1.88;;;;;;;7.93;64.86;96917.25;5020234;28;20050;-80
2024/02/06 10:38:11;;;;;;;3.05;1.70;;;;;;;7.96;64.15;96916.94;5020156;28;20113;-80
2024/02/06 10:40:39;;;;;;;2.42;2.22;;;;;;;7.98;64.38;96915.00;5021590;28;20096;-79
2024/02/06 10:43:07;;;;;;;5.10;2.03;;;;;;;8.02;64.15;96913.72;5020460;28;20089;-77
2024/02/06 10:45:58;;;;;;;7.53;1.83;;;;;;;8.06;64.11;96904.63;5021581;28;20057;-80
2024/02/06 10:48:26;;;;;;;4.22;1.77;;;;;;;8.08;64.29;96907.91;5020477;28;20494;-81
2024/02/06 10:50:59;;;;;;;3.53;1.17;;;;;;;8.10;64.04;96905.16;5019709;28;20053;-79
2024/02/06 10:53:28;;;;;;;3.05;1.55;;;;;;;8.13;63.93;96904.81;5019310;28;20061;-78
2024/02/06 10:56:05;;;;;;;4.18;1.60;;;;;;;8.16;64.38;96894.13;5020019;28;20046;-79
2024/02/06 10:58:38;;;;;;;4.55;1.30;;;;;;;8.19;64.30;96891.19;5018150;28;20507;-78
2024/02/06 11:01:08;;;;;;;2.50;1.08;;;;;;;8.24;63.83;96896.72;5019322;28;20052;-81
2024/02/06 11:03:42;;;;;;;1.90;1.08;;;;;;;8.26;63.57;96892.19;5018773;28;20092;-79
2024/02/06 11:06:17;;;;;;;2.80;1.25;;;;;;;8.28;64.21;96881.63;5018077;28;20049;-78
2024/02/06 11:08:47;;;;;;;8.20;1.98;;;;;;;8.30;63.52;96880.50;5019794;28;20050;-80
2024/02/06 11:11:16;;;;;;;2.42;0.88;;;;;;;8.33;63.44;96879.34;5019087;28;20587;-79
2024/02/06 11:13:48;;;;;;;5.20;1.17;;;;;;;8.36;63.58;96881.66;5018604;28;20141;-79
2024/02/06 11:16:19;;;;;;;3.13;0.70;;;;;;;8.38;62.88;96877.09;5018825;28;20495;-78
2024/02/06 11:18:56;;;;;;;1.52;0.93;;;;;;;8.39;63.79;96873.50;5021101;28;20050;-78
2024/02/06 11:21:27;;;;;;;2.03;0.90;;;;;;;8.43;63.41;96869.66;5019356;28;20069;-81
2024/02/06 11:23:56;;;;;;;3.25;1.02;;;;;;;8.44;63.76;96872.09;5021220;28;20072;-81
2024/02/06 11:26:24;;;;;;;1.63;0.90;;;;;;;8.49;63.45;96863.00;5020358;28;20084;-78
2024/02/06 11:28:52;;;;;;;3.38;0.90;;;;;;;8.51;63.21;96861.06;5020606;28;20054;-79
2024/02/06 11:31:20;;;;;;;1.08;0.82;;;;;;;8.53;63.07;96862.53;5022204;28;20137;-81
2024/02/06 11:33:49;;;;;;;2.10;1.08;;;;;;;8.55;63.02;96855.38;5021551;28;20073;-83
2024/02/06 11:36:20;;;;;;;8.30;1.55;;;;;;;8.53;63.01;96844.31;5022056;28;20065;-80
2024/02/06 11:38:49;;;;;;;5.82;1.17;;;;;;;8.54;63.12;96843.34;5021839;28;20088;-81
2024/02/06 11:41:18;;;;;;;4.38;1.23;;;;;;;8.57;62.37;96856.03;5021864;28;20096;-79
2024/02/06 11:43:47;;;;;;;5.38;1.40;;;;;;;8.58;62.31;96857.63;5021334;28;20045;-79